METAR Formatted Surface Weather Observation
Issued by NWS

Home | Current Version | Previous Version | Text Only | Print | Product List | Glossary On
Versions: 1 2 3 4 5 6 7
000
SPZS31 NSTU 200941
MTRSPP
SPECI NSTU 200938Z 00000KT 3SM SHRA SCT006 BKN012 OVC036 24/24 A2990=


USA.gov is the U.S. government's official web portal to all federal, state and local government web resources and services.